Aviation Digital Data Service (ADDS)

Output produced by METARs form (1803 UTC 19 October 2017)
found at http://www.aviationweather.gov/adds/metars/
 
MZBZ 191800Z 11003KT 9999 VCSH BKN019 28/25 A2995 Q1014 NOSIG RMK CB TOPS-SE/NE/NW VCSH-SE
TAF MZBZ 191500Z 1918/2018 06005KT 9999 SCT020 BKN045 
     PROB40 
     TEMPO 1918/1921 5000 RA SCT008 BKN040 
     PROB30 
     TEMPO 2006/2015 4000 SHRA BKN015